createdAt,value
2023-02-19T00:00:22.043Z,101014.58
2023-02-19T00:02:52.830Z,101016.52
2023-02-19T00:05:23.505Z,101012.86
2023-02-19T00:07:53.918Z,101008.52
2023-02-19T00:10:35.450Z,100991.04
2023-02-19T00:13:06.030Z,100983.95
2023-02-19T00:15:36.907Z,100981.45
2023-02-19T00:18:07.914Z,100978.59
2023-02-19T00:20:38.527Z,100986.22
2023-02-19T00:23:09.064Z,100988.55
2023-02-19T00:25:40.397Z,100994.73
2023-02-19T00:28:10.997Z,100996.84
2023-02-19T00:30:41.526Z,100995.23
2023-02-19T00:33:11.988Z,100994.80
2023-02-19T00:35:42.470Z,100995.27
2023-02-19T00:38:13.109Z,100998.17
2023-02-19T00:40:43.474Z,101001.42
2023-02-19T00:43:13.908Z,100999.02
2023-02-19T00:45:44.620Z,100989.63
2023-02-19T00:48:15.374Z,100994.67
2023-02-19T00:50:46.130Z,100998.00
2023-02-19T00:53:16.930Z,100996.40
2023-02-19T00:55:47.374Z,100990.20
2023-02-19T00:58:17.764Z,100991.08
2023-02-19T01:00:48.368Z,100988.80
2023-02-19T01:03:23.646Z,100982.63
2023-02-19T01:05:55.769Z,100989.07
2023-02-19T01:08:27.345Z,100992.41
2023-02-19T01:10:57.993Z,100990.45
2023-02-19T01:13:31.584Z,100990.09
2023-02-19T01:16:07.529Z,100987.77
2023-02-19T01:18:38.269Z,100994.98
2023-02-19T01:21:11.467Z,100997.77
2023-02-19T01:23:42.567Z,101002.91
2023-02-19T01:26:18.735Z,101000.27
2023-02-19T01:28:50.373Z,100995.88
2023-02-19T01:31:23.099Z,100973.04
2023-02-19T01:33:58.119Z,100974.61
2023-02-19T01:36:29.878Z,100976.08
2023-02-19T01:39:03.928Z,100975.98
2023-02-19T01:41:38.883Z,100973.95
2023-02-19T01:44:24.185Z,100978.51
2023-02-19T01:46:57.582Z,100977.63
2023-02-19T01:49:31.168Z,100976.13
2023-02-19T01:52:07.100Z,100973.52
2023-02-19T01:54:42.300Z,100969.52
2023-02-19T01:57:18.245Z,100967.23
2023-02-19T01:59:55.064Z,100960.48
2023-02-19T02:02:28.566Z,100952.99
2023-02-19T02:05:01.437Z,100952.36
2023-02-19T02:07:50.005Z,100953.15
2023-02-19T02:10:20.993Z,100953.89
2023-02-19T02:12:53.526Z,100950.52
2023-02-19T02:15:30.737Z,100953.66
2023-02-19T02:18:07.753Z,100949.24
2023-02-19T02:21:04.559Z,100950.45
2023-02-19T02:23:48.385Z,100939.52
2023-02-19T02:26:36.654Z,100943.20
2023-02-19T02:29:23.604Z,100939.50
2023-02-19T02:31:59.532Z,100937.61
2023-02-19T02:34:35.856Z,100935.16
2023-02-19T02:37:17.696Z,100934.51
2023-02-19T02:39:49.771Z,100929.96
2023-02-19T02:42:29.995Z,100927.69
2023-02-19T02:45:39.608Z,100924.96
2023-02-19T02:48:44.377Z,100924.68
2023-02-19T02:51:21.723Z,100919.98
2023-02-19T02:54:19.061Z,100920.45
2023-02-19T02:56:51.568Z,100923.70
2023-02-19T02:59:26.104Z,100920.99
2023-02-19T03:02:14.547Z,100916.14
2023-02-19T03:05:12.396Z,100922.02
2023-02-19T03:07:50.773Z,100922.63
2023-02-19T03:10:26.327Z,100918.80
2023-02-19T03:13:17.701Z,100917.14
2023-02-19T03:16:07.982Z,100914.97
2023-02-19T03:19:02.047Z,100910.70
2023-02-19T03:21:38.272Z,100909.56
2023-02-19T03:24:31.298Z,100904.54
2023-02-19T03:27:05.226Z,100904.43
2023-02-19T03:29:43.245Z,100907.88
2023-02-19T03:32:38.086Z,100913.41
2023-02-19T03:35:14.774Z,100909.79
2023-02-19T03:37:50.664Z,100905.83
2023-02-19T03:40:22.786Z,100899.42
2023-02-19T03:43:04.152Z,100902.09
2023-02-19T03:45:38.160Z,100908.15
2023-02-19T03:48:26.299Z,100905.77
2023-02-19T03:51:05.308Z,100904.77
2023-02-19T03:53:43.643Z,100910.83
2023-02-19T03:56:21.747Z,100915.96
2023-02-19T03:59:00.251Z,100916.71
2023-02-19T04:01:38.993Z,100921.66
2023-02-19T04:04:15.095Z,100916.73
2023-02-19T04:06:52.684Z,100921.52
2023-02-19T04:09:25.403Z,100926.80
2023-02-19T04:12:03.085Z,100923.15
2023-02-19T04:14:44.915Z,100930.77
2023-02-19T04:17:26.217Z,100934.58
2023-02-19T04:19:59.981Z,100929.41
2023-02-19T04:22:33.975Z,100937.06
2023-02-19T04:25:04.711Z,100932.42
2023-02-19T04:27:39.278Z,100930.95
2023-02-19T04:30:14.278Z,100931.09
2023-02-19T04:32:47.456Z,100936.16
2023-02-19T04:35:18.031Z,100933.29
2023-02-19T04:37:51.854Z,100927.45
2023-02-19T04:40:22.538Z,100923.70
2023-02-19T04:42:53.815Z,100926.61
2023-02-19T04:45:43.260Z,100923.73
2023-02-19T04:48:16.258Z,100916.05
2023-02-19T04:50:47.315Z,100918.27
2023-02-19T04:53:18.844Z,100913.59
2023-02-19T04:55:48.090Z,100924.75
2023-02-19T04:58:19.687Z,100934.68
2023-02-19T05:00:54.131Z,100935.30
2023-02-19T05:03:28.041Z,100937.80
2023-02-19T05:05:58.674Z,100939.11
2023-02-19T05:08:31.684Z,100942.32
2023-02-19T05:11:03.923Z,100942.52
2023-02-19T05:13:35.033Z,100941.02
2023-02-19T05:16:08.582Z,100946.33
2023-02-19T05:18:39.196Z,100946.72
2023-02-19T05:21:15.064Z,100948.16
2023-02-19T05:23:45.937Z,100952.90
2023-02-19T05:26:18.694Z,100952.75
2023-02-19T05:28:51.152Z,100953.47
2023-02-19T05:31:22.825Z,100960.36
2023-02-19T05:34:03.570Z,100956.52
2023-02-19T05:36:40.415Z,100960.23
2023-02-19T05:39:14.548Z,100963.76
2023-02-19T05:41:47.818Z,100965.89
2023-02-19T05:44:21.131Z,100971.34
2023-02-19T05:46:53.982Z,100977.19
2023-02-19T05:49:24.433Z,100975.09
2023-02-19T05:51:58.411Z,100977.21
2023-02-19T05:54:31.008Z,100980.41
2023-02-19T05:57:01.947Z,100986.42
2023-02-19T05:59:32.801Z,100981.03
2023-02-19T06:02:12.803Z,100978.23
2023-02-19T06:04:43.664Z,100973.52
2023-02-19T06:07:14.378Z,100979.85
2023-02-19T06:09:47.715Z,100978.83
2023-02-19T06:12:18.400Z,100977.28
2023-02-19T06:14:52.479Z,100982.02
2023-02-19T06:17:24.245Z,100992.05
2023-02-19T06:19:58.177Z,101014.66
2023-02-19T06:22:29.196Z,101019.26
2023-02-19T06:24:59.821Z,101016.42
2023-02-19T06:27:33.851Z,101021.51
2023-02-19T06:30:07.859Z,101023.59
2023-02-19T06:32:38.973Z,101026.19
2023-02-19T06:35:10.355Z,101028.27
2023-02-19T06:37:40.941Z,101024.03
2023-02-19T06:40:14.130Z,101029.11
2023-02-19T06:43:18.952Z,101034.36
2023-02-19T06:45:55.046Z,101036.63
2023-02-19T06:48:28.604Z,101038.19
2023-02-19T06:50:59.760Z,101039.91
2023-02-19T06:53:34.799Z,101042.69
2023-02-19T06:56:07.895Z,101044.61
2023-02-19T06:58:40.142Z,101056.34
2023-02-19T07:01:14.786Z,101064.20
2023-02-19T07:03:50.853Z,101069.25
2023-02-19T07:06:23.710Z,101069.22
2023-02-19T07:12:08.646Z,101070.73
2023-02-19T07:14:39.278Z,101069.30
2023-02-19T07:17:20.943Z,101067.69
2023-02-19T07:20:33.203Z,101079.04
2023-02-19T07:23:13.531Z,101073.75
2023-02-19T07:25:55.311Z,101074.58
2023-02-19T07:28:30.490Z,101073.10
2023-02-19T07:31:29.371Z,101070.44
2023-02-19T07:34:00.772Z,101075.77
2023-02-19T07:36:32.116Z,101077.80
2023-02-19T07:39:33.290Z,101079.46
2023-02-19T07:42:24.011Z,101086.70
2023-02-19T07:45:00.725Z,101088.23
2023-02-19T07:51:08.870Z,101097.56
2023-02-19T07:54:23.350Z,101094.00
2023-02-19T07:57:16.028Z,101087.03
2023-02-19T07:59:54.888Z,101097.48
2023-02-19T08:02:47.544Z,101103.15
2023-02-19T08:05:18.425Z,101105.45
2023-02-19T08:07:50.491Z,101106.67
2023-02-19T08:10:39.482Z,101110.58
2023-02-19T08:13:22.396Z,101116.88
2023-02-19T08:15:57.779Z,101114.97
2023-02-19T08:18:41.726Z,101116.80
2023-02-19T08:21:13.083Z,101116.52
2023-02-19T08:23:48.379Z,101115.88
2023-02-19T08:26:23.791Z,101120.54
2023-02-19T08:29:06.004Z,101118.48
2023-02-19T08:31:37.274Z,101115.54
2023-02-19T08:34:10.545Z,101115.94
2023-02-19T08:36:42.640Z,101120.92
2023-02-19T08:39:13.102Z,101132.77
2023-02-19T08:41:47.966Z,101139.58
2023-02-19T08:44:18.729Z,101146.23
2023-02-19T08:46:49.429Z,101149.64
2023-02-19T08:49:20.354Z,101152.01
2023-02-19T08:51:53.453Z,101155.95
2023-02-19T08:54:37.279Z,101160.38
2023-02-19T08:57:29.180Z,101173.02
2023-02-19T09:00:00.160Z,101173.73
2023-02-19T09:02:33.277Z,101180.23
2023-02-19T09:05:05.593Z,101179.86
2023-02-19T09:07:36.516Z,101180.02
2023-02-19T09:10:11.367Z,101184.56
2023-02-19T09:12:44.667Z,101187.52
2023-02-19T09:15:18.650Z,101192.27
2023-02-19T09:17:53.909Z,101195.08
2023-02-19T09:20:24.525Z,101195.39
2023-02-19T09:23:06.075Z,101190.67
2023-02-19T09:25:40.812Z,101198.60
2023-02-19T09:28:12.222Z,101198.33
2023-02-19T09:30:42.956Z,101200.34
2023-02-19T09:33:23.554Z,101198.45
2023-02-19T09:35:59.459Z,101197.95
2023-02-19T09:38:31.026Z,101198.89
2023-02-19T09:41:00.528Z,101201.00
2023-02-19T09:43:31.524Z,101208.39
2023-02-19T09:46:24.189Z,101206.17
2023-02-19T09:48:56.954Z,101205.62
2023-02-19T09:51:29.750Z,101209.65
2023-02-19T09:54:00.908Z,101214.87
2023-02-19T09:56:32.051Z,101219.39
2023-02-19T09:59:02.699Z,101219.34
2023-02-19T10:01:39.910Z,101217.60
2023-02-19T10:04:13.550Z,101215.62
2023-02-19T10:06:44.624Z,101212.27
2023-02-19T10:09:25.953Z,101208.58
2023-02-19T10:11:58.930Z,101211.41
2023-02-19T10:14:35.542Z,101204.67
2023-02-19T10:17:07.634Z,101201.66
2023-02-19T10:19:40.499Z,101209.71
2023-02-19T10:22:12.967Z,101212.55
2023-02-19T10:24:45.755Z,101208.81
2023-02-19T10:27:17.317Z,101204.38
2023-02-19T10:29:50.190Z,101206.46
2023-02-19T10:32:24.128Z,101212.16
2023-02-19T10:48:30.693Z,101234.67
2023-02-19T10:51:07.238Z,101233.18
2023-02-19T10:53:49.311Z,101235.48
2023-02-19T10:56:28.882Z,101235.30
2023-02-19T10:59:22.348Z,101237.60
2023-02-19T11:02:01.649Z,101242.70
2023-02-19T11:04:38.080Z,101244.17
2023-02-19T11:07:16.161Z,101248.10
2023-02-19T11:09:53.641Z,101257.52
2023-02-19T11:12:30.270Z,101264.00
2023-02-19T11:15:25.178Z,101272.34
2023-02-19T11:18:01.164Z,101278.89
2023-02-19T11:20:32.285Z,101279.16
2023-02-19T11:23:16.009Z,101278.91
2023-02-19T11:25:56.464Z,101280.63
2023-02-19T11:28:36.949Z,101276.41
2023-02-19T11:31:25.956Z,101278.77
2023-02-19T11:33:59.995Z,101277.64
2023-02-19T11:36:36.107Z,101276.88
2023-02-19T11:39:22.513Z,101271.40
2023-02-19T11:42:13.663Z,101268.86
2023-02-19T11:45:01.280Z,101263.02
2023-02-19T11:47:48.642Z,101261.74
2023-02-19T11:50:26.018Z,101264.21
2023-02-19T11:53:14.929Z,101262.97
2023-02-19T11:55:59.170Z,101260.96
2023-02-19T11:59:00.877Z,101261.35
2023-02-19T12:01:54.929Z,101262.46
2023-02-19T12:05:02.053Z,101263.84
2023-02-19T12:08:08.375Z,101261.04
2023-02-19T12:11:19.244Z,101259.78
2023-02-19T12:14:41.578Z,101250.52
2023-02-19T12:17:35.968Z,101250.24
2023-02-19T12:20:18.753Z,101255.96
2023-02-19T12:23:01.200Z,101265.68
2023-02-19T12:25:50.477Z,101283.02
2023-02-19T12:28:49.222Z,101279.53
2023-02-19T12:32:02.233Z,101267.44
2023-02-19T12:35:09.151Z,101274.91
2023-02-19T12:37:48.752Z,101267.41
2023-02-19T12:40:29.527Z,101254.84
2023-02-19T12:43:08.718Z,101256.05
2023-02-19T12:45:46.392Z,101255.86
2023-02-19T12:48:26.988Z,101259.57
2023-02-19T12:51:02.381Z,101262.55
2023-02-19T12:53:41.002Z,101264.61
2023-02-19T12:56:18.207Z,101266.17
2023-02-19T12:59:02.364Z,101264.21
2023-02-19T13:01:36.965Z,101266.54
2023-02-19T13:04:35.393Z,101263.74
2023-02-19T13:07:11.997Z,101253.23
2023-02-19T13:09:47.804Z,101240.99
2023-02-19T13:12:24.789Z,101239.97
2023-02-19T13:15:01.716Z,101235.05
2023-02-19T13:17:41.858Z,101239.42
2023-02-19T13:20:21.529Z,101238.39
2023-02-19T13:23:20.958Z,101237.14
2023-02-19T13:26:17.230Z,101233.77
2023-02-19T13:29:03.629Z,101236.77
2023-02-19T13:31:52.354Z,101230.55
2023-02-19T13:34:33.433Z,101228.13
2023-02-19T13:37:05.385Z,101226.27
2023-02-19T13:39:36.735Z,101227.89
2023-02-19T13:42:05.915Z,101224.59
2023-02-19T13:44:39.391Z,101225.15
2023-02-19T13:47:47.964Z,101227.61
2023-02-19T13:50:24.072Z,101232.45
2023-02-19T13:52:58.525Z,101234.59
2023-02-19T13:55:52.745Z,101232.40
2023-02-19T13:58:57.933Z,101234.80
2023-02-19T14:02:12.280Z,101246.27
2023-02-19T14:04:52.179Z,101244.83
2023-02-19T14:08:01.464Z,101247.24
2023-02-19T14:11:02.172Z,101250.17
2023-02-19T14:14:06.846Z,101250.13
2023-02-19T14:16:52.567Z,101253.02
2023-02-19T14:19:52.107Z,101250.30
2023-02-19T14:23:09.651Z,101260.61
2023-02-19T14:26:04.357Z,101277.03
2023-02-19T14:28:44.016Z,101284.80
2023-02-19T14:31:20.774Z,101280.59
2023-02-19T14:34:06.606Z,101287.30
2023-02-19T14:36:45.292Z,101286.70
2023-02-19T14:39:19.050Z,101290.92
2023-02-19T14:42:04.420Z,101289.69
2023-02-19T14:44:57.149Z,101289.64
2023-02-19T14:47:35.043Z,101295.70
2023-02-19T14:50:10.405Z,101294.80
2023-02-19T14:52:45.694Z,101295.61
2023-02-19T14:55:30.449Z,101300.48
2023-02-19T14:58:03.389Z,101300.10
2023-02-19T15:00:38.379Z,101300.79
2023-02-19T15:03:35.243Z,101304.11
2023-02-19T15:06:14.053Z,101303.52
2023-02-19T15:08:50.831Z,101309.45
2023-02-19T15:11:27.163Z,101307.48
2023-02-19T15:14:03.026Z,101308.48
2023-02-19T15:18:15.795Z,101312.79
2023-02-19T15:19:39.680Z,101315.82
2023-02-19T15:22:12.955Z,101311.15
2023-02-19T15:24:48.767Z,101312.63
2023-02-19T15:27:23.739Z,101317.63
2023-02-19T15:29:55.449Z,101309.89
2023-02-19T15:32:28.540Z,101307.48
2023-02-19T15:35:00.996Z,101313.33
2023-02-19T15:37:33.978Z,101315.11
2023-02-19T15:40:09.525Z,101320.23
2023-02-19T15:42:40.247Z,101329.09
2023-02-19T15:45:22.592Z,101335.69
2023-02-19T15:47:56.375Z,101336.30
2023-02-19T15:50:32.127Z,101335.09
2023-02-19T15:53:10.231Z,101334.42
2023-02-19T15:56:05.137Z,101331.17
2023-02-19T15:58:42.673Z,101332.64
2023-02-19T16:01:21.596Z,101339.05
2023-02-19T16:03:53.920Z,101332.41
2023-02-19T16:06:26.386Z,101337.05
2023-02-19T16:09:05.794Z,101338.27
2023-02-19T16:11:53.363Z,101341.00
2023-02-19T16:14:32.071Z,101342.27
2023-02-19T16:17:16.216Z,101339.79
2023-02-19T16:19:52.858Z,101343.18
2023-02-19T16:22:43.615Z,101339.38
2023-02-19T16:25:27.247Z,101339.56
2023-02-19T16:27:59.164Z,101338.53
2023-02-19T16:30:36.299Z,101332.17
2023-02-19T16:33:37.653Z,101329.20
2023-02-19T16:36:36.062Z,101331.97
2023-02-19T16:39:26.363Z,101325.10
2023-02-19T16:42:15.363Z,101326.09
2023-02-19T16:44:47.735Z,101324.81
2023-02-19T16:47:34.203Z,101324.36
2023-02-19T16:50:16.229Z,101323.80
2023-02-19T16:52:57.970Z,101327.04
2023-02-19T16:55:49.221Z,101329.74
2023-02-19T16:58:22.744Z,101329.45
2023-02-19T17:00:53.684Z,101340.20
2023-02-19T17:03:35.489Z,101343.61
2023-02-19T17:06:06.871Z,101347.92
2023-02-19T17:08:56.120Z,101353.08
2023-02-19T17:11:29.346Z,101355.40
2023-02-19T17:14:00.057Z,101357.01
2023-02-19T17:16:39.406Z,101366.04
2023-02-19T17:19:17.063Z,101368.56
2023-02-19T17:22:08.376Z,101376.35
2023-02-19T17:24:38.794Z,101383.81
2023-02-19T17:27:14.867Z,101386.61
2023-02-19T17:29:53.219Z,101395.91
2023-02-19T17:32:24.432Z,101398.05
2023-02-19T17:34:57.937Z,101406.58
2023-02-19T17:37:28.429Z,101414.78
2023-02-19T17:39:59.089Z,101418.21
2023-02-19T17:42:29.747Z,101422.69
2023-02-19T17:45:00.444Z,101428.19
2023-02-19T17:47:33.126Z,101430.16
2023-02-19T17:50:27.331Z,101437.44
2023-02-19T17:52:58.248Z,101444.71
2023-02-19T17:55:49.072Z,101449.35
2023-02-19T17:58:19.842Z,101458.54
2023-02-19T18:00:50.506Z,101455.83
2023-02-19T18:03:20.995Z,101462.03
2023-02-19T18:05:51.754Z,101471.31
2023-02-19T18:08:22.281Z,101471.77
2023-02-19T18:10:53.162Z,101471.08
2023-02-19T18:13:23.735Z,101474.71
2023-02-19T18:15:54.890Z,101473.11
2023-02-19T18:18:24.248Z,101469.88
2023-02-19T18:20:54.834Z,101472.82
2023-02-19T18:23:35.439Z,101477.42
2023-02-19T18:26:07.550Z,101477.42
2023-02-19T18:28:38.866Z,101480.66
2023-02-19T18:31:12.789Z,101485.52
2023-02-19T18:33:43.498Z,101489.31
2023-02-19T18:36:21.706Z,101488.81
2023-02-19T18:38:54.540Z,101496.57
2023-02-19T18:41:25.311Z,101504.15
2023-02-19T18:43:55.950Z,101509.46
2023-02-19T18:46:46.783Z,101510.26
2023-02-19T18:49:18.007Z,101510.70
2023-02-19T18:52:09.469Z,101516.09
2023-02-19T18:54:38.593Z,101517.42
2023-02-19T18:57:19.736Z,101518.03
2023-02-19T18:59:51.151Z,101518.10
2023-02-19T19:02:22.192Z,101521.33
2023-02-19T19:04:57.139Z,101513.64
2023-02-19T19:07:37.988Z,101515.83
2023-02-19T19:10:11.593Z,101512.15
2023-02-19T19:12:42.052Z,101514.58
2023-02-19T19:15:32.975Z,101508.08
2023-02-19T19:18:06.838Z,101509.15
2023-02-19T19:20:40.517Z,101513.16
2023-02-19T19:23:11.250Z,101519.78
2023-02-19T19:25:44.835Z,101520.23
2023-02-19T19:28:15.551Z,101524.03
2023-02-19T19:30:46.116Z,101518.85
2023-02-19T19:33:20.382Z,101519.65
2023-02-19T19:35:50.873Z,101517.49
2023-02-19T19:38:21.672Z,101519.94
2023-02-19T19:40:52.132Z,101518.17
2023-02-19T19:43:22.806Z,101515.19
2023-02-19T19:45:53.668Z,101515.86
2023-02-19T19:48:24.749Z,101516.33
2023-02-19T19:51:16.320Z,101515.23
2023-02-19T19:53:49.540Z,101517.70
2023-02-19T19:56:20.329Z,101523.32
2023-02-19T19:58:51.666Z,101520.85
2023-02-19T20:01:21.341Z,101527.52
2023-02-19T20:03:52.675Z,101529.81
2023-02-19T20:06:30.880Z,101530.36
2023-02-19T20:09:01.846Z,101532.18
2023-02-19T20:11:34.674Z,101534.86
2023-02-19T20:14:05.280Z,101534.55
2023-02-19T20:16:39.050Z,101534.08
2023-02-19T20:19:12.208Z,101528.70
2023-02-19T20:22:02.961Z,101527.86
2023-02-19T20:24:33.688Z,101528.64
2023-02-19T20:27:04.577Z,101531.29
2023-02-19T20:29:36.160Z,101540.30
2023-02-19T20:32:09.543Z,101544.38
2023-02-19T20:34:40.770Z,101547.96
2023-02-19T20:37:11.509Z,101548.16
2023-02-19T20:39:44.997Z,101552.98
2023-02-19T20:42:17.021Z,101555.65
2023-02-19T20:44:47.861Z,101557.80
2023-02-19T20:47:18.908Z,101554.88
2023-02-19T20:49:51.727Z,101555.80
2023-02-19T20:52:24.401Z,101556.72
2023-02-19T20:55:04.209Z,101557.65
2023-02-19T20:57:37.900Z,101555.41
2023-02-19T21:00:12.893Z,101556.00
2023-02-19T21:02:43.935Z,101559.90
2023-02-19T21:05:17.588Z,101560.95
2023-02-19T21:07:48.800Z,101561.52
2023-02-19T21:10:19.608Z,101570.54
2023-02-19T21:12:54.383Z,101567.05
2023-02-19T21:15:25.523Z,101566.91
2023-02-19T21:17:56.401Z,101562.40
2023-02-19T21:20:26.923Z,101559.99
2023-02-19T21:22:57.671Z,101556.17
2023-02-19T21:25:28.427Z,101552.01
2023-02-19T21:27:58.962Z,101549.92
2023-02-19T21:30:32.187Z,101544.34
2023-02-19T21:33:02.967Z,101546.85
2023-02-19T21:35:33.901Z,101549.85
2023-02-19T21:38:04.741Z,101547.59
2023-02-19T21:40:35.448Z,101546.02
2023-02-19T21:43:05.986Z,101551.64
2023-02-19T21:45:36.508Z,101560.46
2023-02-19T21:48:18.212Z,101562.77
2023-02-19T21:50:48.966Z,101567.88
2023-02-19T21:53:22.635Z,101581.58
2023-02-19T21:55:58.622Z,101585.83
2023-02-19T21:58:29.635Z,101591.30
2023-02-19T22:01:00.429Z,101584.45
2023-02-19T22:03:31.030Z,101580.97
2023-02-19T22:06:03.715Z,101577.84
2023-02-19T22:08:34.203Z,101575.41
2023-02-19T22:11:07.522Z,101577.67
2023-02-19T22:13:39.581Z,101575.19
2023-02-19T22:16:10.764Z,101574.27
2023-02-19T22:18:39.944Z,101575.66
2023-02-19T22:21:10.547Z,101570.37
2023-02-19T22:23:43.887Z,101571.77
2023-02-19T22:26:20.112Z,101569.80
2023-02-19T22:28:51.014Z,101570.98
2023-02-19T22:31:23.666Z,101577.11
2023-02-19T22:33:54.954Z,101580.06
2023-02-19T22:36:27.716Z,101586.17
2023-02-19T22:38:58.392Z,101583.15
2023-02-19T22:41:29.648Z,101584.02
2023-02-19T22:44:03.543Z,101582.96
2023-02-19T22:46:34.159Z,101584.02
2023-02-19T22:49:06.791Z,101583.00
2023-02-19T22:51:37.502Z,101585.70
2023-02-19T22:54:11.427Z,101591.16
2023-02-19T22:57:02.057Z,101596.82
2023-02-19T22:59:36.949Z,101594.55
2023-02-19T23:02:07.580Z,101596.37
2023-02-19T23:04:58.335Z,101596.23
2023-02-19T23:07:28.716Z,101591.55
2023-02-19T23:10:19.290Z,101591.23
2023-02-19T23:12:59.818Z,101590.88
2023-02-19T23:15:30.419Z,101592.65
2023-02-19T23:18:00.855Z,101600.75
2023-02-19T23:20:34.020Z,101602.35
2023-02-19T23:23:04.582Z,101597.63
2023-02-19T23:25:35.234Z,101598.88
2023-02-19T23:28:06.049Z,101599.25
2023-02-19T23:30:56.794Z,101599.80
2023-02-19T23:33:27.428Z,101593.46
2023-02-19T23:36:00.409Z,101596.97
2023-02-19T23:38:30.942Z,101594.84
2023-02-19T23:41:02.029Z,101587.09
2023-02-19T23:43:41.058Z,101589.91
2023-02-19T23:46:17.390Z,101592.92
2023-02-19T23:49:01.242Z,101594.55
2023-02-19T23:51:31.735Z,101591.80
2023-02-19T23:54:04.872Z,101592.75
2023-02-19T23:56:35.552Z,101597.55
2023-02-19T23:59:08.735Z,101606.73
